Time;durP1;ratioP1;P1;durP2;ratioP2;P2;SDS_P1;SDS_P2;PMS_P1;PMS_P2;Temp;Humidity;BMP_temperature;BMP_pressure;BME280_temperature;BME280_humidity;BME280_pressure;Samples;Min_cycle;Max_cycle;Signal;HPM_P1;HPM_P2
2023/07/25 00:13:30;;;;;;;8.20;2.67;;;12.60;99.90;;;;;;5084158;22;20114;-58
2023/07/25 00:15:56;;;;;;;11.32;3.10;;;12.70;99.90;;;;;;5078382;28;20044;-59
2023/07/25 00:18:22;;;;;;;8.70;3.30;;;12.60;99.90;;;;;;5076530;28;20059;-58
2023/07/25 00:20:48;;;;;;;10.85;2.88;;;12.50;99.90;;;;;;5078570;28;20028;-58
2023/07/25 00:40:50;;;;;;;9.55;3.47;;;12.50;99.90;;;;;;5080808;28;20043;-58
2023/07/25 00:43:16;;;;;;;11.00;5.25;;;12.50;99.90;;;;;;5077435;28;20047;-58
2023/07/25 00:45:41;;;;;;;13.40;3.00;;;12.60;99.90;;;;;;5083314;28;20032;-58
2023/07/25 00:48:07;;;;;;;9.52;3.17;;;12.50;99.90;;;;;;5083952;28;20101;-58
2023/07/25 00:50:33;;;;;;;11.55;3.25;;;12.60;99.90;;;;;;5089208;28;20075;-58
2023/07/25 00:53:00;;;;;;;9.65;3.22;;;12.60;99.90;;;;;;5093680;28;20040;-59
2023/07/25 00:55:27;;;;;;;9.95;3.40;;;12.50;99.90;;;;;;5080648;28;20033;-58
2023/07/25 00:57:53;;;;;;;10.73;3.40;;;12.50;99.90;;;;;;5093138;28;20060;-58
2023/07/25 01:00:18;;;;;;;11.15;3.40;;;12.50;99.90;;;;;;5101145;28;20258;-57
2023/07/25 01:02:44;;;;;;;8.75;3.63;;;12.50;99.90;;;;;;5100745;28;20100;-58
2023/07/25 01:05:10;;;;;;;10.20;3.50;;;12.50;99.90;;;;;;5099415;28;20097;-58
2023/07/25 01:07:38;;;;;;;8.57;3.55;;;12.50;99.90;;;;;;5080141;28;20045;-55
2023/07/25 01:10:04;;;;;;;10.00;4.25;;;12.50;99.90;;;;;;5081175;28;20052;-59
2023/07/25 01:12:30;;;;;;;10.38;3.60;;;12.50;99.90;;;;;;5062847;28;20534;-58
2023/07/25 01:14:56;;;;;;;7.35;3.28;;;12.40;99.90;;;;;;5080590;28;20052;-58
2023/07/25 01:17:23;;;;;;;9.30;2.97;;;12.50;99.90;;;;;;5080945;28;20048;-58
2023/07/25 01:19:51;;;;;;;9.93;3.45;;;12.50;99.90;;;;;;5080201;28;20068;-59
2023/07/25 01:22:18;;;;;;;11.02;3.25;;;12.60;99.90;;;;;;5083187;28;20075;-58
2023/07/25 01:24:45;;;;;;;9.27;3.30;;;12.70;99.90;;;;;;5100666;28;20122;-58
2023/07/25 01:27:12;;;;;;;11.07;3.45;;;12.90;99.90;;;;;;5101087;28;20040;-58
2023/07/25 01:29:38;;;;;;;8.32;3.08;;;13.00;99.90;;;;;;5100538;28;20072;-58
2023/07/25 01:32:04;;;;;;;10.80;3.90;;;13.10;99.90;;;;;;5085244;28;20077;-59
2023/07/25 01:34:29;;;;;;;10.20;3.25;;;13.20;99.90;;;;;;5104993;28;20044;-58
2023/07/25 01:36:55;;;;;;;9.45;3.35;;;13.20;99.90;;;;;;5104751;28;20400;-58
2023/07/25 01:39:21;;;;;;;10.50;3.58;;;13.20;99.90;;;;;;5105346;28;20044;-58
2023/07/25 01:41:46;;;;;;;15.68;3.22;;;13.30;99.90;;;;;;5086288;28;20068;-59
2023/07/25 01:44:12;;;;;;;9.95;3.53;;;13.30;99.90;;;;;;5105217;28;20040;-59
2023/07/25 01:46:43;;;;;;;15.15;4.53;;;13.40;99.90;;;;;;5104805;28;20097;-59
2023/07/25 01:49:12;;;;;;;10.80;3.28;;;13.40;99.90;;;;;;5104312;28;20044;-58
2023/07/25 01:51:38;;;;;;;9.45;3.50;;;13.40;99.90;;;;;;5104875;28;20040;-58
2023/07/25 01:54:04;;;;;;;11.00;3.22;;;13.30;99.90;;;;;;5104357;28;20037;-58
2023/07/25 01:56:30;;;;;;;7.28;2.63;;;13.20;99.90;;;;;;5102133;28;20127;-58
2023/07/25 01:58:56;;;;;;;8.40;2.95;;;13.30;99.90;;;;;;5083761;28;20147;-58
2023/07/25 02:01:22;;;;;;;10.27;3.08;;;13.30;99.90;;;;;;5084358;28;20039;-58
2023/07/25 02:03:48;;;;;;;9.18;3.20;;;13.30;99.90;;;;;;5083926;28;20063;-58
2023/07/25 02:06:13;;;;;;;11.80;3.20;;;13.30;99.90;;;;;;5084072;28;20040;-58
2023/07/25 02:08:39;;;;;;;10.85;3.38;;;13.30;99.90;;;;;;5084285;28;20052;-58
2023/07/25 02:11:05;;;;;;;9.18;3.00;;;13.30;99.90;;;;;;5083920;28;20124;-59
2023/07/25 02:13:30;;;;;;;11.00;3.47;;;13.30;99.90;;;;;;5084101;28;20057;-58
2023/07/25 02:15:56;;;;;;;9.70;3.38;;;13.30;99.90;;;;;;5083613;28;20066;-59
2023/07/25 02:18:22;;;;;;;10.23;3.72;;;13.20;99.90;;;;;;5084016;28;20048;-58
2023/07/25 02:20:47;;;;;;;8.30;3.58;;;13.30;99.90;;;;;;5083678;28;20417;-58
2023/07/25 02:23:13;;;;;;;9.25;3.03;;;13.30;99.90;;;;;;5084011;28;20067;-59
2023/07/25 02:25:39;;;;;;;12.57;3.10;;;13.20;99.90;;;;;;5083657;28;20097;-58
2023/07/25 02:28:04;;;;;;;8.40;2.92;;;13.30;99.90;;;;;;5083719;28;20032;-58
2023/07/25 02:30:30;;;;;;;10.93;3.20;;;13.30;99.90;;;;;;5083949;28;20044;-59
2023/07/25 02:32:56;;;;;;;9.20;2.75;;;13.30;99.90;;;;;;5083434;28;20091;-58
2023/07/25 02:35:21;;;;;;;11.85;3.40;;;13.30;99.90;;;;;;5083815;28;20114;-58
2023/07/25 02:37:47;;;;;;;8.75;3.03;;;13.30;99.90;;;;;;5083381;28;20046;-58
2023/07/25 02:40:12;;;;;;;9.55;3.05;;;13.40;99.90;;;;;;5065351;28;20094;-58
2023/07/25 02:42:38;;;;;;;8.63;3.22;;;13.40;99.90;;;;;;5082514;28;20067;-58
2023/07/25 02:45:05;;;;;;;9.07;3.08;;;13.40;99.90;;;;;;5083178;28;20090;-58
2023/07/25 02:47:30;;;;;;;12.63;3.47;;;13.40;99.90;;;;;;5083540;28;20044;-58
2023/07/25 02:49:56;;;;;;;9.30;3.20;;;13.40;99.90;;;;;;5082774;28;20044;-58
2023/07/25 02:52:21;;;;;;;9.40;3.05;;;13.40;99.90;;;;;;5083652;28;20130;-58
2023/07/25 02:54:47;;;;;;;9.10;2.95;;;13.40;99.90;;;;;;5083149;28;20044;-58
2023/07/25 02:57:13;;;;;;;9.98;2.72;;;13.50;99.90;;;;;;5092253;28;20103;-58
2023/07/25 02:59:38;;;;;;;14.05;2.95;;;13.50;99.90;;;;;;5103426;28;20047;-58
2023/07/25 03:02:04;;;;;;;11.13;3.28;;;13.60;99.90;;;;;;5103136;28;20107;-58
2023/07/25 03:04:30;;;;;;;13.80;3.00;;;13.70;99.90;;;;;;5085233;28;20073;-58
2023/07/25 03:06:56;;;;;;;12.80;3.30;;;13.70;99.90;;;;;;5103012;28;20062;-59
2023/07/25 03:09:21;;;;;;;8.85;2.85;;;13.70;99.90;;;;;;5103643;28;20099;-58
2023/07/25 03:11:47;;;;;;;15.80;3.20;;;13.70;99.90;;;;;;5102953;28;20044;-58
2023/07/25 03:14:12;;;;;;;11.48;3.88;;;13.70;99.90;;;;;;5103340;28;20056;-58
2023/07/25 03:16:38;;;;;;;8.35;2.58;;;13.60;99.90;;;;;;5102763;28;20100;-59
2023/07/25 03:19:04;;;;;;;11.60;2.92;;;13.70;99.90;;;;;;5102550;28;20048;-58
2023/07/25 03:21:29;;;;;;;11.45;3.00;;;13.60;99.90;;;;;;5102983;28;20062;-58
2023/07/25 03:23:55;;;;;;;9.07;2.88;;;13.60;99.90;;;;;;5102932;28;20044;-58
2023/07/25 03:26:21;;;;;;;11.60;3.50;;;13.50;99.90;;;;;;5103056;28;20044;-57
2023/07/25 03:28:46;;;;;;;11.65;3.40;;;13.50;99.90;;;;;;5102677;28;20039;-58
2023/07/25 03:31:12;;;;;;;9.80;2.75;;;13.40;99.90;;;;;;5103014;28;20392;-58
2023/07/25 03:33:38;;;;;;;8.95;2.80;;;13.30;99.90;;;;;;5102654;28;20439;-58
2023/07/25 03:36:04;;;;;;;12.73;3.25;;;13.20;99.90;;;;;;5102005;28;20047;-58
2023/07/25 03:38:30;;;;;;;9.55;3.00;;;13.20;99.90;;;;;;5101773;28;20064;-57
2023/07/25 03:40:55;;;;;;;8.00;2.88;;;13.20;99.90;;;;;;5101614;28;20059;-56
2023/07/25 03:43:21;;;;;;;9.88;3.20;;;13.20;99.90;;;;;;5102793;28;20036;-58
2023/07/25 03:45:47;;;;;;;11.60;2.75;;;13.20;99.90;;;;;;5101974;28;20036;-58
2023/07/25 03:48:13;;;;;;;8.43;2.80;;;13.10;99.90;;;;;;5102317;28;20104;-57
2023/07/25 03:50:39;;;;;;;6.47;2.95;;;13.20;99.90;;;;;;5102027;28;20154;-58
2023/07/25 03:53:05;;;;;;;6.63;2.40;;;13.10;99.90;;;;;;5102255;28;20040;-58
2023/07/25 03:55:30;;;;;;;10.82;3.00;;;13.10;99.90;;;;;;5102261;28;20059;-58
2023/07/25 03:57:56;;;;;;;8.65;2.90;;;13.00;99.90;;;;;;5087157;28;20074;-58
2023/07/25 04:00:22;;;;;;;7.10;2.42;;;13.00;99.90;;;;;;5082004;28;20054;-58
2023/07/25 04:02:48;;;;;;;11.00;2.72;;;13.00;99.90;;;;;;5081531;28;20036;-58
2023/07/25 04:05:14;;;;;;;7.85;2.60;;;13.00;99.90;;;;;;5082523;28;20076;-58
2023/07/25 04:07:40;;;;;;;9.95;2.70;;;13.00;99.90;;;;;;5081299;28;20066;-58
2023/07/25 04:10:06;;;;;;;8.23;2.42;;;13.00;99.90;;;;;;5081888;28;20128;-58
2023/07/25 04:12:32;;;;;;;8.52;2.70;;;12.90;99.90;;;;;;5081529;28;20037;-58
2023/07/25 04:14:58;;;;;;;8.57;2.33;;;12.80;99.90;;;;;;5081347;28;20052;-58
2023/07/25 04:17:23;;;;;;;8.63;2.53;;;12.80;99.90;;;;;;5081651;28;20451;-58
2023/07/25 04:19:49;;;;;;;7.97;2.30;;;12.80;99.90;;;;;;5081085;28;20040;-57
2023/07/25 04:22:15;;;;;;;10.80;3.13;;;12.70;99.90;;;;;;5081980;28;20130;-57
2023/07/25 04:24:40;;;;;;;10.25;2.70;;;12.70;99.90;;;;;;5081197;28;20043;-58
2023/07/25 04:27:06;;;;;;;8.23;2.33;;;12.60;99.90;;;;;;5081875;28;20071;-58
2023/07/25 04:29:32;;;;;;;10.25;2.13;;;12.60;99.90;;;;;;5081319;28;20050;-58
2023/07/25 04:31:57;;;;;;;9.02;2.50;;;12.70;99.90;;;;;;5081233;28;20040;-58
2023/07/25 04:34:23;;;;;;;6.80;2.60;;;12.70;99.90;;;;;;5081619;28;20240;-57
2023/07/25 04:36:49;;;;;;;11.57;2.60;;;12.60;99.90;;;;;;5081126;28;20086;-57
2023/07/25 04:39:15;;;;;;;10.32;2.75;;;12.70;99.90;;;;;;5081526;28;20048;-57
2023/07/25 04:41:40;;;;;;;8.35;2.30;;;12.80;99.90;;;;;;5081066;28;20055;-58
2023/07/25 04:44:06;;;;;;;7.80;2.10;;;12.90;99.90;;;;;;5081609;28;20044;-57
2023/07/25 04:46:32;;;;;;;8.82;2.50;;;12.90;99.90;;;;;;5081170;28;20052;-57
2023/07/25 04:48:58;;;;;;;7.03;2.13;;;13.00;99.90;;;;;;5080911;28;20040;-58
2023/07/25 04:51:24;;;;;;;8.40;2.85;;;13.00;99.90;;;;;;5081338;28;20045;-58
2023/07/25 04:53:49;;;;;;;7.60;2.00;;;13.00;99.90;;;;;;5080944;28;20040;-58
2023/07/25 04:56:15;;;;;;;6.70;2.08;;;12.90;99.90;;;;;;5082338;28;20040;-57
2023/07/25 04:58:41;;;;;;;8.65;2.25;;;13.00;99.90;;;;;;5100765;28;20643;-58
2023/07/25 05:01:07;;;;;;;12.10;2.70;;;12.90;99.90;;;;;;5101548;28;20094;-59
2023/07/25 05:03:33;;;;;;;8.20;1.92;;;13.00;99.90;;;;;;5101109;28;20040;-58
2023/07/25 05:05:59;;;;;;;13.73;2.10;;;13.00;99.90;;;;;;5100993;28;20120;-58
2023/07/25 05:08:25;;;;;;;7.03;2.60;;;12.90;99.90;;;;;;5101165;28;20054;-58
2023/07/25 05:10:52;;;;;;;10.65;3.00;;;13.00;99.90;;;;;;5101181;28;20083;-59
2023/07/25 05:13:18;;;;;;;11.00;3.00;;;13.00;99.90;;;;;;5101003;28;20040;-58
2023/07/25 05:15:44;;;;;;;7.78;2.20;;;13.10;99.90;;;;;;5100826;28;20056;-59
2023/07/25 05:18:10;;;;;;;8.73;2.20;;;13.20;99.90;;;;;;5101186;28;20043;-58
2023/07/25 05:20:35;;;;;;;7.60;2.03;;;13.30;99.90;;;;;;5100739;28;20046;-57
2023/07/25 05:23:01;;;;;;;15.30;2.75;;;13.40;99.90;;;;;;5098471;28;20044;-58
2023/07/25 05:25:27;;;;;;;8.43;2.08;;;13.50;99.90;;;;;;5096771;28;20048;-58
2023/07/25 05:27:53;;;;;;;7.30;1.95;;;13.60;99.90;;;;;;5096837;28;20356;-57
2023/07/25 05:30:18;;;;;;;8.95;2.03;;;13.70;99.90;;;;;;5097346;28;20115;-58
2023/07/25 05:32:45;;;;;;;8.05;2.28;;;13.70;99.90;;;;;;5096482;28;20040;-58
2023/07/25 05:35:11;;;;;;;8.63;2.13;;;13.80;99.90;;;;;;5097245;28;20518;-58
2023/07/25 05:37:38;;;;;;;9.48;2.30;;;13.80;99.90;;;;;;5096901;28;20055;-57
2023/07/25 05:40:05;;;;;;;8.48;2.30;;;14.00;99.90;;;;;;5097243;28;20041;-58
2023/07/25 05:42:31;;;;;;;8.23;2.40;;;14.00;99.90;;;;;;5096643;28;20051;-58
2023/07/25 05:45:00;;;;;;;8.43;2.30;;;13.90;99.90;;;;;;5078965;28;20400;-58
2023/07/25 05:47:29;;;;;;;10.20;2.40;;;13.80;99.90;;;;;;5096951;28;20040;-58
2023/07/25 05:49:55;;;;;;;5.10;1.92;;;13.80;99.90;;;;;;5078186;28;20048;-58
2023/07/25 05:52:21;;;;;;;8.27;2.13;;;13.70;99.90;;;;;;5096849;28;20048;-57
2023/07/25 05:54:48;;;;;;;14.68;2.88;;;13.70;99.90;;;;;;5078345;28;20036;-57
2023/07/25 05:57:14;;;;;;;6.80;2.05;;;13.80;99.90;;;;;;5087486;28;20045;-58
2023/07/25 05:59:42;;;;;;;8.38;2.40;;;13.90;99.90;;;;;;5076103;28;20389;-58
2023/07/25 06:02:08;;;;;;;10.98;2.15;;;14.00;99.90;;;;;;5076663;28;20037;-58
2023/07/25 06:04:34;;;;;;;10.57;2.67;;;14.00;99.90;;;;;;5076728;28;20041;-58
2023/07/25 06:06:59;;;;;;;9.25;2.25;;;14.00;99.90;;;;;;5076120;28;20198;-58
2023/07/25 06:09:25;;;;;;;8.30;1.90;;;14.20;99.90;;;;;;5082191;28;20064;-57
2023/07/25 06:11:51;;;;;;;6.45;1.85;;;14.30;99.90;;;;;;5084805;28;20080;-58
2023/07/25 06:14:16;;;;;;;7.82;2.15;;;14.40;99.90;;;;;;5081951;28;20057;-58
2023/07/25 06:16:42;;;;;;;7.72;2.10;;;14.50;99.90;;;;;;5076225;28;20838;-57
2023/07/25 06:19:08;;;;;;;5.43;1.45;;;14.60;99.90;;;;;;5078684;28;20041;-57
2023/07/25 06:21:34;;;;;;;9.40;1.92;;;14.60;99.90;;;;;;5079194;28;20048;-57
2023/07/25 06:23:59;;;;;;;7.90;1.50;;;14.70;99.90;;;;;;5078742;28;20067;-58
2023/07/25 06:26:25;;;;;;;8.77;1.52;;;14.80;99.90;;;;;;5080376;28;20052;-58
2023/07/25 06:28:52;;;;;;;7.57;1.25;;;14.80;99.90;;;;;;5079409;28;20044;-57
2023/07/25 06:31:18;;;;;;;11.68;1.65;;;14.90;99.90;;;;;;5080321;28;20044;-58
2023/07/25 06:33:43;;;;;;;6.60;1.42;;;15.00;99.90;;;;;;5061549;28;20055;-58
2023/07/25 06:36:09;;;;;;;4.60;0.95;;;14.90;99.90;;;;;;5079552;28;20102;-56
2023/07/25 06:38:35;;;;;;;8.80;1.30;;;15.10;99.90;;;;;;5079721;28;20052;-58
2023/07/25 06:41:00;;;;;;;6.25;1.02;;;15.20;99.90;;;;;;5079271;28;20086;-57
2023/07/25 06:43:26;;;;;;;6.05;1.13;;;15.10;99.90;;;;;;5079942;28;20044;-57
2023/07/25 06:45:52;;;;;;;4.95;1.10;;;15.30;99.90;;;;;;5079131;28;20048;-58
2023/07/25 06:48:17;;;;;;;2.83;0.98;;;15.40;99.90;;;;;;5061362;28;20059;-58
2023/07/25 06:50:44;;;;;;;4.35;0.93;;;15.40;99.90;;;;;;5079197;28;20044;-58
2023/07/25 06:53:09;;;;;;;5.25;1.00;;;15.50;99.90;;;;;;5079475;28;20110;-58
2023/07/25 06:55:37;;;;;;;4.68;0.90;;;15.40;99.90;;;;;;5079090;28;20088;-58
2023/07/25 06:58:03;;;;;;;6.28;1.00;;;15.30;99.90;;;;;;5095183;28;20166;-58
2023/07/25 07:00:29;;;;;;;5.55;0.93;;;15.30;99.90;;;;;;5081376;28;20044;-57
2023/07/25 07:02:55;;;;;;;6.53;1.00;;;15.40;99.90;;;;;;5098298;28;20075;-57
2023/07/25 07:05:20;;;;;;;4.25;0.82;;;15.40;99.90;;;;;;5099697;28;20047;-58
2023/07/25 07:07:46;;;;;;;4.70;1.13;;;15.40;99.90;;;;;;5099018;28;20079;-58
2023/07/25 07:10:12;;;;;;;3.35;0.82;;;15.50;99.90;;;;;;5099251;28;20123;-58
2023/07/25 07:12:45;;;;;;;5.18;1.00;;;15.60;99.90;;;;;;5098345;28;20051;-57
2023/07/25 07:15:17;;;;;;;2.92;0.70;;;15.60;99.90;;;;;;5086916;28;20044;-57
2023/07/25 07:17:43;;;;;;;5.18;1.67;;;15.50;99.90;;;;;;5090816;28;20048;-57
2023/07/25 07:20:09;;;;;;;7.82;1.10;;;15.60;99.90;;;;;;5098812;28;20044;-58
2023/07/25 07:22:34;;;;;;;5.78;1.00;;;15.80;99.90;;;;;;5100162;28;20050;-58
2023/07/25 07:25:00;;;;;;;4.75;0.90;;;15.80;99.90;;;;;;5101482;28;20103;-57
2023/07/25 07:27:26;;;;;;;6.07;0.85;;;15.90;99.90;;;;;;5102135;28;20081;-57
2023/07/25 07:29:52;;;;;;;5.90;1.00;;;15.80;99.90;;;;;;5102311;28;20036;-57
2023/07/25 07:32:18;;;;;;;3.38;0.80;;;15.50;99.90;;;;;;5084377;28;20056;-57
2023/07/25 07:34:44;;;;;;;5.32;1.67;;;15.20;99.90;;;;;;5102684;28;20062;-57
2023/07/25 07:37:10;;;;;;;6.25;1.20;;;15.40;99.90;;;;;;5101644;28;20131;-57
2023/07/25 07:39:38;;;;;;;4.95;0.90;;;15.60;99.90;;;;;;5102824;28;20462;-57
2023/07/25 07:42:04;;;;;;;6.88;1.00;;;15.80;99.90;;;;;;5102345;28;20507;-57
2023/07/25 07:44:29;;;;;;;4.55;0.98;;;16.00;99.90;;;;;;5101847;28;20108;-56
2023/07/25 07:46:55;;;;;;;4.60;1.42;;;16.10;99.90;;;;;;5101915;28;20028;-57
2023/07/25 07:49:21;;;;;;;8.45;1.73;;;15.80;99.90;;;;;;5101640;28;20039;-57
2023/07/25 07:51:47;;;;;;;12.70;1.40;;;15.60;99.90;;;;;;5101836;28;20044;-57
2023/07/25 07:54:12;;;;;;;5.60;1.23;;;15.50;99.90;;;;;;5101705;28;20050;-58
2023/07/25 07:56:38;;;;;;;6.93;1.67;;;15.80;99.90;;;;;;5098422;28;20040;-57
2023/07/25 07:59:05;;;;;;;6.35;1.10;;;15.90;99.90;;;;;;5081790;28;20083;-57
2023/07/25 08:01:31;;;;;;;7.57;1.42;;;15.90;99.90;;;;;;5082129;28;20070;-57
2023/07/25 08:03:57;;;;;;;4.95;1.00;;;16.20;99.90;;;;;;5084265;28;20044;-56
2023/07/25 08:06:22;;;;;;;5.35;1.23;;;16.30;99.90;;;;;;5089737;28;20032;-57
2023/07/25 08:08:48;;;;;;;6.53;1.10;;;16.40;99.90;;;;;;5099176;28;20055;-58
2023/07/25 08:11:14;;;;;;;4.75;1.23;;;16.10;99.90;;;;;;5101205;28;20055;-57
2023/07/25 08:13:39;;;;;;;5.05;0.90;;;16.10;99.90;;;;;;5084027;28;20075;-57
2023/07/25 08:16:05;;;;;;;5.93;0.95;;;16.20;99.90;;;;;;5101380;28;20051;-57
2023/07/25 08:18:31;;;;;;;4.13;1.20;;;16.20;99.90;;;;;;5101958;28;20048;-57
2023/07/25 08:20:58;;;;;;;5.72;0.90;;;16.30;99.90;;;;;;5098169;28;20511;-58
2023/07/25 08:23:25;;;;;;;7.55;1.55;;;16.40;99.90;;;;;;5049850;28;20052;-57
2023/07/25 08:25:51;;;;;;;3.45;0.95;;;16.30;99.90;;;;;;5101902;28;20096;-58
2023/07/25 08:28:17;;;;;;;6.65;1.38;;;16.40;99.90;;;;;;5101397;28;20047;-57
2023/07/25 08:30:43;;;;;;;8.27;1.60;;;16.50;99.50;;;;;;5083616;28;20127;-57
2023/07/25 08:33:10;;;;;;;5.18;1.33;;;16.90;99.90;;;;;;5101515;28;20071;-57
2023/07/25 08:35:36;;;;;;;3.45;0.88;;;17.00;99.90;;;;;;5101608;28;20048;-57
2023/07/25 08:38:02;;;;;;;5.90;1.48;;;17.00;92.50;;;;;;5101514;28;20047;-57
2023/07/25 08:40:27;;;;;;;7.20;1.38;;;17.20;98.90;;;;;;5082537;28;20036;-58
2023/07/25 08:43:00;;;;;;;7.22;1.13;;;17.20;98.40;;;;;;5101711;28;20514;-57
2023/07/25 08:45:26;;;;;;;4.60;1.00;;;17.00;99.90;;;;;;5100992;28;20550;-58
2023/07/25 08:47:53;;;;;;;4.35;0.82;;;16.60;99.90;;;;;;5101577;28;20040;-57
2023/07/25 08:50:21;;;;;;;3.85;1.08;;;17.00;99.90;;;;;;5100781;28;20047;-57
2023/07/25 08:52:51;;;;;;;5.35;0.88;;;17.10;96.90;;;;;;5098814;28;20078;-58
2023/07/25 08:55:17;;;;;;;5.07;1.00;;;17.00;95.90;;;;;;5073260;28;20040;-57
2023/07/25 08:57:44;;;;;;;4.30;1.05;;;16.90;99.70;;;;;;5084487;28;20064;-57
2023/07/25 09:00:13;;;;;;;3.70;0.90;;;16.60;99.90;;;;;;5079878;28;20052;-57
2023/07/25 09:02:39;;;;;;;5.50;1.00;;;16.50;99.90;;;;;;5078958;28;20051;-57
2023/07/25 09:05:05;;;;;;;8.00;1.38;;;16.30;99.90;;;;;;5081509;28;20049;-57
2023/07/25 09:07:31;;;;;;;4.18;1.33;;;16.30;99.90;;;;;;5080688;28;20051;-57
2023/07/25 09:09:58;;;;;;;5.50;1.10;;;16.40;99.90;;;;;;5081145;28;20412;-57
2023/07/25 09:12:24;;;;;;;4.43;1.00;;;16.20;99.90;;;;;;5080631;28;20057;-57
2023/07/25 09:14:51;;;;;;;3.97;1.17;;;16.20;99.90;;;;;;5080704;28;20056;-57
2023/07/25 09:17:17;;;;;;;5.60;1.00;;;16.00;99.90;;;;;;5080986;28;20040;-57
2023/07/25 09:19:43;;;;;;;7.93;1.17;;;16.00;99.90;;;;;;5080280;28;20048;-55
2023/07/25 09:22:31;;;;;;;6.85;1.30;;;16.20;99.90;;;;;;5081188;28;20037;-57
2023/07/25 09:24:58;;;;;;;5.75;1.10;;;16.60;99.90;;;;;;5062438;28;20048;-57
2023/07/25 09:27:25;;;;;;;5.57;1.35;;;16.90;99.90;;;;;;5080487;28;20044;-57
2023/07/25 09:29:52;;;;;;;9.07;1.27;;;17.20;99.90;;;;;;5062712;28;20044;-57
2023/07/25 09:32:23;;;;;;;5.82;1.25;;;17.10;99.90;;;;;;5080226;28;20528;-58
2023/07/25 09:34:59;;;;;;;7.25;1.27;;;16.80;99.90;;;;;;5081078;28;20535;-58
2023/07/25 09:37:25;;;;;;;4.93;1.25;;;16.60;99.90;;;;;;5080425;28;20044;-59
2023/07/25 09:39:51;;;;;;;4.63;1.23;;;16.60;99.90;;;;;;5080381;28;20121;-58
2023/07/25 09:42:21;;;;;;;6.70;1.10;;;16.60;99.90;;;;;;5080443;28;20029;-58
2023/07/25 09:44:48;;;;;;;4.88;1.08;;;16.70;99.90;;;;;;5080582;28;20055;-57
2023/07/25 09:47:19;;;;;;;6.97;1.35;;;16.80;99.90;;;;;;5080820;28;20040;-57
2023/07/25 09:49:49;;;;;;;7.07;1.75;;;16.70;99.90;;;;;;5080020;28;20052;-57
2023/07/25 09:52:15;;;;;;;5.53;1.20;;;16.70;99.90;;;;;;5082255;28;20036;-56
2023/07/25 09:54:41;;;;;;;6.10;1.20;;;16.70;99.90;;;;;;5083735;28;20041;-57
2023/07/25 09:57:07;;;;;;;3.20;0.90;;;16.60;99.90;;;;;;5074551;28;20043;-57
2023/07/25 09:59:34;;;;;;;8.48;1.08;;;16.60;99.80;;;;;;5099365;28;20169;-57
2023/07/25 10:02:01;;;;;;;6.10;1.35;;;16.40;99.50;;;;;;5094688;28;20610;-55
2023/07/25 10:04:27;;;;;;;5.13;1.23;;;16.40;99.90;;;;;;5093347;28;20094;-56
2023/07/25 10:06:53;;;;;;;4.40;1.23;;;16.70;99.90;;;;;;5093566;28;20067;-58
2023/07/25 10:09:19;;;;;;;5.22;1.10;;;17.00;99.90;;;;;;5076865;28;20040;-57
2023/07/25 10:11:46;;;;;;;9.80;1.55;;;16.90;96.50;;;;;;5092289;28;20044;-57
2023/07/25 10:14:13;;;;;;;6.65;1.40;;;17.10;98.80;;;;;;5075712;28;20066;-58
2023/07/25 10:16:40;;;;;;;6.93;1.38;;;17.10;96.10;;;;;;5094623;28;20514;-58
2023/07/25 10:19:06;;;;;;;3.72;0.98;;;17.30;95.50;;;;;;5092321;28;20025;-58
2023/07/25 10:21:49;;;;;;;5.88;1.15;;;17.50;96.60;;;;;;5093737;28;20039;-58
2023/07/25 10:24:16;;;;;;;6.13;1.10;;;17.30;93.90;;;;;;5092933;28;20451;-58
2023/07/25 10:27:00;;;;;;;5.72;1.10;;;17.10;95.20;;;;;;5077405;28;20099;-58
2023/07/25 10:29:49;;;;;;;5.55;1.40;;;16.90;99.30;;;;;;5090143;28;20484;-57
2023/07/25 10:32:17;;;;;;;7.97;1.23;;;16.80;99.90;;;;;;5083584;28;20045;-58
2023/07/25 10:34:51;;;;;;;3.45;0.90;;;17.40;99.90;;;;;;5084244;28;20078;-58
2023/07/25 10:37:22;;;;;;;6.40;1.15;;;17.90;99.90;;;;;;5083206;28;20074;-58
2023/07/25 10:40:14;;;;;;;5.27;1.10;;;18.00;97.40;;;;;;5086180;28;20100;-58
2023/07/25 10:42:58;;;;;;;5.82;1.08;;;17.50;94.50;;;;;;5091192;28;20344;-57
2023/07/25 10:45:27;;;;;;;5.28;1.48;;;17.20;93.70;;;;;;5082905;28;20054;-58
2023/07/25 10:47:53;;;;;;;5.22;0.93;;;17.20;97.90;;;;;;5083398;28;20036;-57
2023/07/25 10:50:26;;;;;;;5.40;1.40;;;17.40;97.20;;;;;;5082833;28;20041;-57
2023/07/25 10:52:52;;;;;;;5.25;1.00;;;17.80;94.30;;;;;;5064653;28;20464;-57
2023/07/25 10:55:18;;;;;;;5.82;0.95;;;18.00;92.30;;;;;;5083095;28;20092;-57
2023/07/25 10:58:07;;;;;;;3.60;0.82;;;18.40;92.10;;;;;;5092705;28;20044;-57
2023/07/25 11:00:37;;;;;;;6.35;0.90;;;17.80;91.50;;;;;;5094072;28;20040;-58
2023/07/25 11:03:29;;;;;;;4.07;0.80;;;17.70;78.90;;;;;;5092196;28;20040;-57
2023/07/25 11:06:06;;;;;;;4.10;1.00;;;17.70;91.60;;;;;;5091695;28;20037;-56
2023/07/25 11:08:37;;;;;;;4.03;0.90;;;17.70;96.20;;;;;;5072176;28;20060;-57
2023/07/25 11:11:11;;;;;;;4.53;1.08;;;17.50;95.80;;;;;;5081901;28;20041;-57
2023/07/25 11:13:41;;;;;;;7.68;2.25;;;17.50;94.20;;;;;;5082668;28;20078;-58
2023/07/25 11:16:09;;;;;;;4.82;0.98;;;17.30;92.70;;;;;;5081924;28;20057;-57
2023/07/25 11:18:37;;;;;;;15.65;3.28;;;17.20;97.40;;;;;;5082294;28;20048;-57
2023/07/25 11:21:07;;;;;;;3.88;1.20;;;17.40;97.60;;;;;;5082376;28;20048;-57
2023/07/25 11:23:36;;;;;;;7.45;2.22;;;17.20;93.00;;;;;;5081662;28;20047;-58
2023/07/25 11:26:06;;;;;;;6.25;1.00;;;17.10;94.40;;;;;;5082743;28;20055;-57
2023/07/25 11:28:33;;;;;;;4.32;0.90;;;17.20;93.80;;;;;;5063862;28;20045;-58
2023/07/25 11:30:58;;;;;;;2.50;0.70;;;17.30;95.00;;;;;;5095108;28;20043;-58
2023/07/25 11:33:24;;;;;;;4.40;0.80;;;17.30;90.90;;;;;;5102268;28;20298;-58
2023/07/25 11:35:55;;;;;;;2.47;0.70;;;17.60;96.00;;;;;;5067882;28;20062;-58
2023/07/25 11:38:23;;;;;;;4.82;1.08;;;17.30;92.30;;;;;;5102121;28;20043;-58
2023/07/25 11:40:51;;;;;;;4.72;1.05;;;17.20;93.10;;;;;;5102353;28;20627;-58
2023/07/25 11:43:17;;;;;;;5.05;1.00;;;17.20;97.00;;;;;;5102952;28;20059;-59
2023/07/25 11:45:47;;;;;;;5.88;1.23;;;17.20;95.90;;;;;;5102037;28;20091;-58
2023/07/25 11:48:19;;;;;;;4.03;1.17;;;17.10;92.10;;;;;;5102483;28;20059;-58
2023/07/25 11:50:51;;;;;;;4.47;0.90;;;17.20;97.60;;;;;;5102126;28;20051;-57
2023/07/25 11:53:19;;;;;;;5.82;1.10;;;17.20;95.50;;;;;;5102069;28;20422;-59
2023/07/25 11:55:46;;;;;;;6.50;0.98;;;17.10;97.90;;;;;;5102401;28;20050;-59
2023/07/25 11:58:19;;;;;;;3.95;0.80;;;16.90;94.40;;;;;;5084137;28;20048;-57
2023/07/25 12:00:51;;;;;;;7.13;1.10;;;17.00;94.80;;;;;;5082575;28;20040;-54
2023/07/25 12:03:24;;;;;;;5.78;0.88;;;17.20;91.70;;;;;;5081632;28;20044;-57
2023/07/25 12:05:51;;;;;;;5.03;1.00;;;17.20;94.50;;;;;;5063705;28;20442;-58
2023/07/25 12:08:30;;;;;;;3.13;0.80;;;17.20;92.20;;;;;;5081819;28;20046;-58
2023/07/25 12:11:03;;;;;;;4.13;0.73;;;17.40;92.90;;;;;;5081551;28;20545;-58
2023/07/25 12:13:28;;;;;;;3.85;0.77;;;17.30;93.20;;;;;;5081662;28;20116;-57
2023/07/25 12:16:00;;;;;;;5.13;1.15;;;17.10;89.10;;;;;;5080300;28;20036;-57
2023/07/25 12:18:30;;;;;;;3.45;0.90;;;17.10;90.10;;;;;;5081516;28;20048;-58
2023/07/25 12:20:57;;;;;;;6.43;1.00;;;17.50;94.30;;;;;;5081499;28;20051;-58
2023/07/25 12:23:31;;;;;;;6.47;1.40;;;17.60;94.70;;;;;;5081281;28;20075;-57
2023/07/25 12:25:59;;;;;;;5.03;1.20;;;17.20;99.20;;;;;;5081550;28;20055;-57
2023/07/25 12:28:37;;;;;;;4.55;1.15;;;17.20;99.40;;;;;;5080777;28;20071;-57
2023/07/25 12:31:02;;;;;;;4.57;0.90;;;17.30;99.90;;;;;;5063497;28;20040;-58
2023/07/25 12:33:28;;;;;;;7.20;1.50;;;17.10;99.90;;;;;;5081351;28;20541;-57
2023/07/25 12:35:55;;;;;;;3.65;0.80;;;17.30;99.90;;;;;;5081097;28;20142;-58
2023/07/25 12:38:20;;;;;;;3.90;0.90;;;17.40;95.50;;;;;;5081225;28;20048;-57
2023/07/25 12:40:46;;;;;;;5.22;1.30;;;17.70;96.00;;;;;;5062838;28;20040;-58
2023/07/25 12:43:12;;;;;;;6.05;1.15;;;17.80;95.60;;;;;;5081217;28;20044;-57
2023/07/25 12:45:38;;;;;;;3.72;0.80;;;17.60;93.50;;;;;;5080389;28;20438;-58
2023/07/25 12:48:04;;;;;;;5.80;0.95;;;17.50;90.10;;;;;;5081290;28;20048;-57
2023/07/25 12:50:30;;;;;;;4.30;1.00;;;17.70;92.50;;;;;;5081030;28;20171;-58
2023/07/25 12:52:56;;;;;;;4.65;1.00;;;17.60;88.40;;;;;;5086045;28;20054;-57
2023/07/25 12:55:22;;;;;;;4.18;0.95;;;17.80;92.20;;;;;;5071178;28;20036;-57
2023/07/25 12:57:47;;;;;;;3.13;1.02;;;17.40;85.20;;;;;;5072402;28;20048;-58
2023/07/25 13:00:13;;;;;;;4.20;0.88;;;17.70;84.60;;;;;;5070713;28;20067;-58
2023/07/25 13:02:39;;;;;;;5.70;1.00;;;17.50;81.30;;;;;;5081960;28;20116;-56
2023/07/25 13:05:06;;;;;;;4.30;1.00;;;17.60;89.10;;;;;;5091613;28;20068;-57
2023/07/25 13:07:33;;;;;;;5.57;1.20;;;18.00;93.30;;;;;;5088285;28;20048;-57
2023/07/25 13:09:59;;;;;;;5.53;1.00;;;17.90;93.60;;;;;;5075539;28;20052;-57
2023/07/25 13:12:24;;;;;;;3.25;0.80;;;17.30;91.20;;;;;;5078987;28;20066;-57
2023/07/25 13:14:50;;;;;;;3.00;0.70;;;17.50;90.70;;;;;;5100540;28;20515;-58